sensor_id;sensor_type;location;lat;lon;timestamp;pressure;altitude;pressure_sealevel;temperature;humidity
72798;BME280;61084;55.816;37.036;2023-03-16T00:02:09;99048.72;;;4.96;61.54
72798;BME280;61084;55.816;37.036;2023-03-16T00:04:36;99039.25;;;4.95;61.51
72798;BME280;61084;55.816;37.036;2023-03-16T00:07:03;99047.06;;;4.94;61.69
72798;BME280;61084;55.816;37.036;2023-03-16T00:09:29;99046.19;;;4.95;61.81
72798;BME280;61084;55.816;37.036;2023-03-16T00:12:01;99047.03;;;4.95;62.11
72798;BME280;61084;55.816;37.036;2023-03-16T00:14:31;99039.25;;;4.95;62.23
72798;BME280;61084;55.816;37.036;2023-03-16T00:16:57;99037.66;;;4.91;62.02
72798;BME280;61084;55.816;37.036;2023-03-16T00:19:23;99034.19;;;4.91;61.74
72798;BME280;61084;55.816;37.036;2023-03-16T00:21:49;99036.91;;;4.88;61.72
72798;BME280;61084;55.816;37.036;2023-03-16T00:24:16;99032.63;;;4.87;62.39
72798;BME280;61084;55.816;37.036;2023-03-16T00:26:46;99036.97;;;4.86;62.05
72798;BME280;61084;55.816;37.036;2023-03-16T00:29:12;99041.25;;;4.87;62.12
72798;BME280;61084;55.816;37.036;2023-03-16T00:31:40;99040.44;;;4.87;62.58
72798;BME280;61084;55.816;37.036;2023-03-16T00:34:10;99046.41;;;4.89;62.01
72798;BME280;61084;55.816;37.036;2023-03-16T00:36:36;99043.84;;;4.87;62.47
72798;BME280;61084;55.816;37.036;2023-03-16T00:39:04;99036.97;;;4.86;62.79
72798;BME280;61084;55.816;37.036;2023-03-16T00:41:31;99037.81;;;4.87;62.91
72798;BME280;61084;55.816;37.036;2023-03-16T00:43:57;99032.63;;;4.87;62.98
72798;BME280;61084;55.816;37.036;2023-03-16T00:46:22;99039.56;;;4.86;62.55
72798;BME280;61084;55.816;37.036;2023-03-16T00:48:51;99034.38;;;4.86;62.46
72798;BME280;61084;55.816;37.036;2023-03-16T00:51:18;99038.78;;;4.84;63.12
72798;BME280;61084;55.816;37.036;2023-03-16T00:53:45;99042.22;;;4.85;63.17
72798;BME280;61084;55.816;37.036;2023-03-16T00:56:11;99031.88;;;4.83;62.80
72798;BME280;61084;55.816;37.036;2023-03-16T00:58:39;99031.88;;;4.83;62.94
72798;BME280;61084;55.816;37.036;2023-03-16T01:01:18;99031.06;;;4.81;63.32
72798;BME280;61084;55.816;37.036;2023-03-16T01:03:46;99038.88;;;4.81;63.32
72798;BME280;61084;55.816;37.036;2023-03-16T01:06:16;99029.41;;;4.80;63.36
72798;BME280;61084;55.816;37.036;2023-03-16T01:08:42;99032.00;;;4.80;63.55
72798;BME280;61084;55.816;37.036;2023-03-16T01:11:13;99037.19;;;4.80;63.34
72798;BME280;61084;55.816;37.036;2023-03-16T01:13:41;99040.69;;;4.79;63.50
72798;BME280;61084;55.816;37.036;2023-03-16T01:16:07;99037.22;;;4.79;63.33
72798;BME280;61084;55.816;37.036;2023-03-16T01:18:34;99036.41;;;4.78;63.21
72798;BME280;61084;55.816;37.036;2023-03-16T01:21:04;99032.88;;;4.79;63.87
72798;BME280;61084;55.816;37.036;2023-03-16T01:23:33;99037.22;;;4.79;63.76
72798;BME280;61084;55.816;37.036;2023-03-16T01:25:59;99030.28;;;4.79;64.22
72798;BME280;61084;55.816;37.036;2023-03-16T01:28:27;99032.03;;;4.79;63.85
72798;BME280;61084;55.816;37.036;2023-03-16T01:30:57;99044.13;;;4.80;64.30
72798;BME280;61084;55.816;37.036;2023-03-16T01:33:25;99038.09;;;4.79;64.02
72798;BME280;61084;55.816;37.036;2023-03-16T01:35:56;99041.59;;;4.78;64.58
72798;BME280;61084;55.816;37.036;2023-03-16T01:38:24;99044.22;;;4.77;64.49
72798;BME280;61084;55.816;37.036;2023-03-16T01:40:51;99041.63;;;4.77;64.55
72798;BME280;61084;55.816;37.036;2023-03-16T01:43:21;99045.09;;;4.77;64.13
72798;BME280;61084;55.816;37.036;2023-03-16T01:46:16;99051.16;;;4.78;64.68
72798;BME280;61084;55.816;37.036;2023-03-16T01:49:07;99047.63;;;4.79;64.41
72798;BME280;61084;55.816;37.036;2023-03-16T01:51:40;99041.59;;;4.78;64.15
72798;BME280;61084;55.816;37.036;2023-03-16T01:56:47;99044.19;;;4.78;64.61
72798;BME280;61084;55.816;37.036;2023-03-16T01:59:19;99041.63;;;4.77;64.53
72798;BME280;61084;55.816;37.036;2023-03-16T02:01:47;99047.75;;;4.76;64.52
72798;BME280;61084;55.816;37.036;2023-03-16T02:04:22;99049.44;;;4.77;nan
72798;BME280;61084;55.816;37.036;2023-03-16T02:06:56;99058.03;;;4.79;64.19
72798;BME280;61084;55.816;37.036;2023-03-16T02:09:22;99047.69;;;4.77;64.52
72798;BME280;61084;55.816;37.036;2023-03-16T02:11:51;99047.63;;;4.79;64.79
72798;BME280;61084;55.816;37.036;2023-03-16T02:14:18;99050.28;;;4.77;64.89
72798;BME280;61084;55.816;37.036;2023-03-16T02:16:44;99052.94;;;4.76;64.37
72798;BME280;61084;55.816;37.036;2023-03-16T02:19:15;99052.88;;;4.77;64.35
72798;BME280;61084;55.816;37.036;2023-03-16T02:21:51;99051.25;;;4.75;64.58
72798;BME280;61084;55.816;37.036;2023-03-16T02:24:20;99052.09;;;4.75;64.84
72798;BME280;61084;55.816;37.036;2023-03-16T02:26:54;99050.28;;;4.77;65.00
72798;BME280;61084;55.816;37.036;2023-03-16T02:32:10;99054.69;;;4.75;64.77
72798;BME280;61084;55.816;37.036;2023-03-16T02:34:37;99058.16;;;4.76;64.77
72798;BME280;61084;55.816;37.036;2023-03-16T02:37:04;99052.94;;;4.76;64.81
72798;BME280;61084;55.816;37.036;2023-03-16T02:39:31;99050.38;;;4.74;64.69
72798;BME280;61084;55.816;37.036;2023-03-16T02:42:00;99050.34;;;4.76;64.68
72798;BME280;61084;55.816;37.036;2023-03-16T02:44:30;99060.69;;;4.77;64.92
72798;BME280;61084;55.816;37.036;2023-03-16T02:47:02;99053.84;;;4.75;64.89
72798;BME280;61084;55.816;37.036;2023-03-16T02:49:37;99050.44;;;4.73;64.67
72798;BME280;61084;55.816;37.036;2023-03-16T02:52:08;99051.38;;;4.72;64.91
72798;BME280;61084;55.816;37.036;2023-03-16T02:54:34;99051.38;;;4.72;65.04
72798;BME280;61084;55.816;37.036;2023-03-16T02:57:00;99053.03;;;4.73;65.21
72798;BME280;61084;55.816;37.036;2023-03-16T02:59:27;99040.97;;;4.72;65.13
72798;BME280;61084;55.816;37.036;2023-03-16T03:01:53;99043.56;;;4.72;65.25
72798;BME280;61084;55.816;37.036;2023-03-16T03:04:19;99041.78;;;4.72;65.44
72798;BME280;61084;55.816;37.036;2023-03-16T03:06:48;99046.09;;;4.73;64.87
72798;BME280;61084;55.816;37.036;2023-03-16T03:09:15;99046.97;;;4.74;65.32
72798;BME280;61084;55.816;37.036;2023-03-16T03:11:41;99042.59;;;4.74;65.19
72798;BME280;61084;55.816;37.036;2023-03-16T03:14:07;99034.00;;;4.72;65.32
72798;BME280;61084;55.816;37.036;2023-03-16T03:16:35;99042.66;;;4.73;65.05
72798;BME280;61084;55.816;37.036;2023-03-16T03:19:01;99030.66;;;4.69;65.04
72798;BME280;61084;55.816;37.036;2023-03-16T03:21:30;99041.75;;;4.74;65.51
72798;BME280;61084;55.816;37.036;2023-03-16T03:23:55;99039.25;;;4.71;65.06
72798;BME280;61084;55.816;37.036;2023-03-16T03:26:21;99038.25;;;4.75;65.22
72798;BME280;61084;55.816;37.036;2023-03-16T03:28:49;99035.66;;;4.75;65.42
72798;BME280;61084;55.816;37.036;2023-03-16T03:31:20;99026.09;;;4.75;65.20
72798;BME280;61084;55.816;37.036;2023-03-16T03:33:47;99021.78;;;4.74;65.60
72798;BME280;61084;55.816;37.036;2023-03-16T03:36:13;99022.66;;;4.75;65.28
72798;BME280;61084;55.816;37.036;2023-03-16T03:38:40;99032.16;;;4.76;65.38
72798;BME280;61084;55.816;37.036;2023-03-16T03:41:07;99026.09;;;4.75;65.17
72798;BME280;61084;55.816;37.036;2023-03-16T03:43:35;99012.25;;;4.75;65.30
72798;BME280;61084;55.816;37.036;2023-03-16T03:46:02;99010.50;;;4.75;65.54
72798;BME280;61084;55.816;37.036;2023-03-16T03:48:31;99006.16;;;4.76;65.58
72798;BME280;61084;55.816;37.036;2023-03-16T03:50:56;99002.69;;;4.75;65.23
72798;BME280;61084;55.816;37.036;2023-03-16T03:53:41;99008.78;;;4.74;65.67
72798;BME280;61084;55.816;37.036;2023-03-16T03:56:30;99013.09;;;4.75;65.40
72798;BME280;61084;55.816;37.036;2023-03-16T03:58:57;99013.97;;;4.76;65.74
72798;BME280;61084;55.816;37.036;2023-03-16T04:01:49;99025.22;;;4.76;65.51
72798;BME280;61084;55.816;37.036;2023-03-16T04:04:19;99023.50;;;4.75;65.50
72798;BME280;61084;55.816;37.036;2023-03-16T04:06:45;99020.84;;;4.77;65.75
72798;BME280;61084;55.816;37.036;2023-03-16T04:09:12;99018.19;;;4.78;65.88
72798;BME280;61084;55.816;37.036;2023-03-16T04:11:38;99017.41;;;4.76;65.37
72798;BME280;61084;55.816;37.036;2023-03-16T04:14:04;99007.00;;;4.76;65.81
72798;BME280;61084;55.816;37.036;2023-03-16T04:16:31;99002.63;;;4.77;65.38
72798;BME280;61084;55.816;37.036;2023-03-16T04:18:57;99007.00;;;4.76;65.61
72798;BME280;61084;55.816;37.036;2023-03-16T04:21:23;99017.41;;;4.76;65.52
72798;BME280;61084;55.816;37.036;2023-03-16T04:23:49;99006.16;;;4.76;65.92
72798;BME280;61084;55.816;37.036;2023-03-16T04:26:21;99015.53;;;4.80;65.69
72798;BME280;61084;55.816;37.036;2023-03-16T04:28:51;99019.81;;;4.81;65.68
72798;BME280;61084;55.816;37.036;2023-03-16T04:31:18;99012.84;;;4.83;65.56
72798;BME280;61084;55.816;37.036;2023-03-16T04:33:45;99016.34;;;4.82;65.73
72798;BME280;61084;55.816;37.036;2023-03-16T04:36:11;99026.72;;;4.82;65.98
72798;BME280;61084;55.816;37.036;2023-03-16T04:38:38;99029.34;;;4.82;65.84
72798;BME280;61084;55.816;37.036;2023-03-16T04:41:05;99047.53;;;4.82;65.50
72798;BME280;61084;55.816;37.036;2023-03-16T04:43:45;99052.72;;;4.82;66.14
72798;BME280;61084;55.816;37.036;2023-03-16T04:46:19;99048.38;;;4.82;65.54
72798;BME280;61084;55.816;37.036;2023-03-16T04:48:45;99051.84;;;4.83;66.18
72798;BME280;61084;55.816;37.036;2023-03-16T04:51:11;99049.28;;;4.81;66.03
72798;BME280;61084;55.816;37.036;2023-03-16T04:53:42;99054.47;;;4.81;65.66
72798;BME280;61084;55.816;37.036;2023-03-16T04:56:24;99049.28;;;4.81;65.67
72798;BME280;61084;55.816;37.036;2023-03-16T04:58:55;99053.53;;;4.84;66.09
72798;BME280;61084;55.816;37.036;2023-03-16T05:01:22;99054.31;;;4.86;65.61
72798;BME280;61084;55.816;37.036;2023-03-16T05:03:52;99061.22;;;4.87;65.78
72798;BME280;61084;55.816;37.036;2023-03-16T05:06:18;99064.72;;;4.86;66.22
72798;BME280;61084;55.816;37.036;2023-03-16T05:08:44;99060.47;;;4.83;65.83
72798;BME280;61084;55.816;37.036;2023-03-16T05:11:10;99058.78;;;4.82;66.08
72798;BME280;61084;55.816;37.036;2023-03-16T05:13:45;99061.47;;;4.79;65.85
72798;BME280;61084;55.816;37.036;2023-03-16T05:16:11;99052.88;;;4.77;66.12
72798;BME280;61084;55.816;37.036;2023-03-16T05:18:39;99061.53;;;4.78;66.54
72798;BME280;61084;55.816;37.036;2023-03-16T05:21:05;99075.34;;;4.80;66.37
72798;BME280;61084;55.816;37.036;2023-03-16T05:23:43;99073.63;;;4.79;66.72
72798;BME280;61084;55.816;37.036;2023-03-16T05:26:09;99070.94;;;4.82;66.03
72798;BME280;61084;55.816;37.036;2023-03-16T05:28:36;99070.13;;;4.80;66.08
72798;BME280;61084;55.816;37.036;2023-03-16T05:31:09;99072.72;;;4.80;66.55
72798;BME280;61084;55.816;37.036;2023-03-16T05:33:42;99076.22;;;4.79;66.05
72798;BME280;61084;55.816;37.036;2023-03-16T05:36:13;99077.00;;;4.81;66.53
72798;BME280;61084;55.816;37.036;2023-03-16T05:38:41;99081.25;;;4.83;66.82
72798;BME280;61084;55.816;37.036;2023-03-16T05:41:10;99082.91;;;4.86;66.52
72798;BME280;61084;55.816;37.036;2023-03-16T05:43:53;99079.53;;;4.84;66.68
72798;BME280;61084;55.816;37.036;2023-03-16T05:46:21;99079.53;;;4.84;66.34
72798;BME280;61084;55.816;37.036;2023-03-16T05:48:49;99078.63;;;4.85;66.47
72798;BME280;61084;55.816;37.036;2023-03-16T05:51:17;99077.72;;;4.86;66.70
72798;BME280;61084;55.816;37.036;2023-03-16T05:53:43;99075.13;;;4.86;66.79
72798;BME280;61084;55.816;37.036;2023-03-16T05:56:19;99076.84;;;4.85;66.58
72798;BME280;61084;55.816;37.036;2023-03-16T05:58:45;99085.56;;;4.84;66.71
72798;BME280;61084;55.816;37.036;2023-03-16T06:01:11;99094.16;;;4.86;67.23
72798;BME280;61084;55.816;37.036;2023-03-16T06:03:40;99089.84;;;4.85;67.00
72798;BME280;61084;55.816;37.036;2023-03-16T06:06:09;99089.81;;;4.87;67.25
72798;BME280;61084;55.816;37.036;2023-03-16T06:08:49;99086.28;;;4.89;66.71
72798;BME280;61084;55.816;37.036;2023-03-16T06:11:17;99076.69;;;4.90;67.12
72798;BME280;61084;55.816;37.036;2023-03-16T06:13:44;99076.75;;;4.88;67.00
72798;BME280;61084;55.816;37.036;2023-03-16T06:16:11;99078.50;;;4.88;67.14
72798;BME280;61084;55.816;37.036;2023-03-16T06:18:39;99082.69;;;4.92;66.79
72798;BME280;61084;55.816;37.036;2023-03-16T06:21:06;99082.69;;;4.92;66.87
72798;BME280;61084;55.816;37.036;2023-03-16T06:23:33;99086.22;;;4.91;67.23
72798;BME280;61084;55.816;37.036;2023-03-16T06:26:00;99094.00;;;4.91;67.18
72798;BME280;61084;55.816;37.036;2023-03-16T06:28:28;99097.47;;;4.91;67.08
72798;BME280;61084;55.816;37.036;2023-03-16T06:30:55;99100.06;;;4.91;67.10
72798;BME280;61084;55.816;37.036;2023-03-16T06:33:25;99099.16;;;4.92;67.00
72798;BME280;61084;55.816;37.036;2023-03-16T06:35:50;99109.56;;;4.92;67.43
72798;BME280;61084;55.816;37.036;2023-03-16T06:38:26;99116.47;;;4.93;67.10
72798;BME280;61084;55.816;37.036;2023-03-16T06:41:27;99109.47;;;4.95;67.54
72798;BME280;61084;55.816;37.036;2023-03-16T06:43:53;99112.91;;;4.96;66.94
72798;BME280;61084;55.816;37.036;2023-03-16T06:46:19;99109.47;;;4.95;67.62
72798;BME280;61084;55.816;37.036;2023-03-16T06:48:46;99107.81;;;4.93;67.61
72798;BME280;61084;55.816;37.036;2023-03-16T06:51:12;99112.09;;;4.94;67.17
72798;BME280;61084;55.816;37.036;2023-03-16T06:53:38;99113.72;;;4.96;67.24
72798;BME280;61084;55.816;37.036;2023-03-16T06:56:04;99121.59;;;4.95;67.69
72798;BME280;61084;55.816;37.036;2023-03-16T06:58:35;99122.50;;;4.94;67.63
72798;BME280;61084;55.816;37.036;2023-03-16T07:01:04;99128.38;;;4.99;67.60
72798;BME280;61084;55.816;37.036;2023-03-16T07:03:30;99121.50;;;4.98;67.38
72798;BME280;61084;55.816;37.036;2023-03-16T07:06:01;99119.69;;;5.00;67.60
72798;BME280;61084;55.816;37.036;2023-03-16T07:08:27;99113.72;;;4.98;67.63
72798;BME280;61084;55.816;37.036;2023-03-16T07:10:54;99118.91;;;4.98;67.62
72798;BME280;61084;55.816;37.036;2023-03-16T07:13:20;99111.94;;;4.98;67.95
72798;BME280;61084;55.816;37.036;2023-03-16T07:15:49;99114.44;;;5.01;67.61
72798;BME280;61084;55.816;37.036;2023-03-16T07:18:18;99118.78;;;5.01;67.91
72798;BME280;61084;55.816;37.036;2023-03-16T07:20:44;99115.31;;;5.00;67.62
72798;BME280;61084;55.816;37.036;2023-03-16T07:23:10;99112.63;;;5.03;67.75
72798;BME280;61084;55.816;37.036;2023-03-16T07:25:38;99114.38;;;5.03;67.41
72798;BME280;61084;55.816;37.036;2023-03-16T07:28:04;99109.94;;;5.06;67.46
72798;BME280;61084;55.816;37.036;2023-03-16T07:30:36;99100.53;;;5.02;67.88
72798;BME280;61084;55.816;37.036;2023-03-16T07:33:03;99094.34;;;5.05;67.92
72798;BME280;61084;55.816;37.036;2023-03-16T07:35:30;99103.97;;;5.03;67.45
72798;BME280;61084;55.816;37.036;2023-03-16T07:37:56;99092.84;;;4.99;67.71
72798;BME280;61084;55.816;37.036;2023-03-16T07:40:23;99102.16;;;5.05;67.80
72798;BME280;61084;55.816;37.036;2023-03-16T07:42:50;99098.56;;;5.09;67.69
72798;BME280;61084;55.816;37.036;2023-03-16T07:45:26;99109.78;;;5.11;67.70
72798;BME280;61084;55.816;37.036;2023-03-16T07:47:52;99107.09;;;5.12;68.24
72798;BME280;61084;55.816;37.036;2023-03-16T07:50:46;99101.84;;;5.14;67.57
72798;BME280;61084;55.816;37.036;2023-03-16T07:53:13;99110.50;;;5.14;68.02
72798;BME280;61084;55.816;37.036;2023-03-16T07:55:43;99113.09;;;5.14;67.72
72798;BME280;61084;55.816;37.036;2023-03-16T07:58:10;99117.34;;;5.17;67.80
72798;BME280;61084;55.816;37.036;2023-03-16T08:00:39;99118.19;;;5.17;67.86
72798;BME280;61084;55.816;37.036;2023-03-16T08:03:05;99114.63;;;5.20;67.70
72798;BME280;61084;55.816;37.036;2023-03-16T08:05:31;99118.06;;;5.20;67.53
72798;BME280;61084;55.816;37.036;2023-03-16T08:07:59;99111.13;;;5.21;67.37
72798;BME280;61084;55.816;37.036;2023-03-16T08:10:30;99105.84;;;5.22;67.97
72798;BME280;61084;55.816;37.036;2023-03-16T08:13:07;99106.66;;;5.24;67.84
72798;BME280;61084;55.816;37.036;2023-03-16T08:15:35;99097.97;;;5.25;67.76
72798;BME280;61084;55.816;37.036;2023-03-16T08:18:17;99099.69;;;5.25;67.88
72798;BME280;61084;55.816;37.036;2023-03-16T08:20:43;99104.75;;;5.29;67.39
72798;BME280;61084;55.816;37.036;2023-03-16T08:23:10;99111.66;;;5.30;67.84
72798;BME280;61084;55.816;37.036;2023-03-16T08:25:40;99109.09;;;5.29;67.96
72798;BME280;61084;55.816;37.036;2023-03-16T08:28:14;99111.69;;;5.29;67.39
72798;BME280;61084;55.816;37.036;2023-03-16T08:30:47;99110.81;;;5.30;67.47
72798;BME280;61084;55.816;37.036;2023-03-16T08:33:33;99097.78;;;5.30;67.67
72798;BME280;61084;55.816;37.036;2023-03-16T08:36:01;99109.00;;;5.32;67.69
72798;BME280;61084;55.816;37.036;2023-03-16T08:38:27;99112.38;;;5.34;67.64
72798;BME280;61084;55.816;37.036;2023-03-16T08:40:53;99114.88;;;5.37;67.45
72798;BME280;61084;55.816;37.036;2023-03-16T08:43:21;99107.00;;;5.39;67.72
72798;BME280;61084;55.816;37.036;2023-03-16T08:45:48;99112.09;;;5.42;67.65
72798;BME280;61084;55.816;37.036;2023-03-16T08:48:17;99111.13;;;5.44;67.66
72798;BME280;61084;55.816;37.036;2023-03-16T08:50:47;99110.16;;;5.47;67.81
72798;BME280;61084;55.816;37.036;2023-03-16T08:53:13;99110.97;;;5.49;67.39
72798;BME280;61084;55.816;37.036;2023-03-16T08:55:39;99108.19;;;5.53;67.64
72798;BME280;61084;55.816;37.036;2023-03-16T08:58:10;99117.56;;;5.57;67.46
72798;BME280;61084;55.816;37.036;2023-03-16T09:00:37;99129.56;;;5.61;67.44
72798;BME280;61084;55.816;37.036;2023-03-16T09:03:04;99128.75;;;5.61;67.98
72798;BME280;61084;55.816;37.036;2023-03-16T09:05:30;99126.13;;;5.61;67.89
72798;BME280;61084;55.816;37.036;2023-03-16T09:07:57;99111.31;;;5.63;67.61
72798;BME280;61084;55.816;37.036;2023-03-16T09:10:23;99111.31;;;5.63;67.70
72798;BME280;61084;55.816;37.036;2023-03-16T09:12:51;99105.13;;;5.65;67.58
72798;BME280;61084;55.816;37.036;2023-03-16T09:15:18;99105.06;;;5.67;67.68
72798;BME280;61084;55.816;37.036;2023-03-16T09:17:46;99107.50;;;5.71;67.74
72798;BME280;61084;55.816;37.036;2023-03-16T09:20:14;99112.66;;;5.73;67.58
72798;BME280;61084;55.816;37.036;2023-03-16T09:22:41;99111.78;;;5.72;67.32
72798;BME280;61084;55.816;37.036;2023-03-16T09:25:08;99114.41;;;5.72;67.13
72798;BME280;61084;55.816;37.036;2023-03-16T09:27:35;99107.38;;;5.74;67.25
72798;BME280;61084;55.816;37.036;2023-03-16T09:30:04;99122.88;;;5.77;66.99
72798;BME280;61084;55.816;37.036;2023-03-16T09:32:30;99122.00;;;5.78;67.02
72798;BME280;61084;55.816;37.036;2023-03-16T09:34:56;99131.41;;;5.81;67.10
72798;BME280;61084;55.816;37.036;2023-03-16T09:37:22;99132.28;;;5.81;67.31
72798;BME280;61084;55.816;37.036;2023-03-16T09:39:48;99134.81;;;5.83;66.92
72798;BME280;61084;55.816;37.036;2023-03-16T09:42:23;99128.81;;;5.81;67.19
72798;BME280;61084;55.816;37.036;2023-03-16T09:47:39;99136.44;;;5.87;67.45
72798;BME280;61084;55.816;37.036;2023-03-16T09:50:10;99139.16;;;5.84;66.91
72798;BME280;61084;55.816;37.036;2023-03-16T09:55:37;99143.25;;;5.91;66.88
72798;BME280;61084;55.816;37.036;2023-03-16T09:58:09;99138.06;;;5.89;67.28
72798;BME280;61084;55.816;37.036;2023-03-16T10:03:55;99139.53;;;5.96;67.47
72798;BME280;61084;55.816;37.036;2023-03-16T10:06:25;99136.03;;;5.97;67.27
72798;BME280;61084;55.816;37.036;2023-03-16T10:16:52;99145.44;;;6.01;66.89
72798;BME280;61084;55.816;37.036;2023-03-16T10:22:10;99142.75;;;6.03;66.95
72798;BME280;61084;55.816;37.036;2023-03-16T10:27:31;99152.56;;;5.96;67.18
72798;BME280;61084;55.816;37.036;2023-03-16T10:30:30;99142.31;;;5.92;66.72
72798;BME280;61084;55.816;37.036;2023-03-16T10:33:04;99133.69;;;5.91;67.15
72798;BME280;61084;55.816;37.036;2023-03-16T10:36:03;99131.00;;;5.93;66.86
72798;BME280;61084;55.816;37.036;2023-03-16T10:41:28;99147.34;;;5.96;67.09
72798;BME280;61084;55.816;37.036;2023-03-16T10:44:01;99145.66;;;5.95;67.45
72798;BME280;61084;55.816;37.036;2023-03-16T10:46:40;99143.88;;;5.96;67.20
72798;BME280;61084;55.816;37.036;2023-03-16T10:49:35;99138.69;;;5.96;66.89
72798;BME280;61084;55.816;37.036;2023-03-16T10:52:13;99134.50;;;5.92;67.47
72798;BME280;61084;55.816;37.036;2023-03-16T10:54:48;99145.78;;;5.92;66.99
72798;BME280;61084;55.816;37.036;2023-03-16T10:57:34;99143.16;;;5.92;67.71
72798;BME280;61084;55.816;37.036;2023-03-16T11:00:12;99141.34;;;5.94;67.62
72798;BME280;61084;55.816;37.036;2023-03-16T11:02:39;99144.72;;;5.98;67.05
72798;BME280;61084;55.816;37.036;2023-03-16T11:07:50;99156.75;;;6.00;67.07
72798;BME280;61084;55.816;37.036;2023-03-16T11:13:20;99162.03;;;5.99;67.44
72798;BME280;61084;55.816;37.036;2023-03-16T11:16:02;99155.84;;;6.01;67.63
72798;BME280;61084;55.816;37.036;2023-03-16T11:18:40;99156.56;;;6.05;67.23
72798;BME280;61084;55.816;37.036;2023-03-16T11:21:22;99154.88;;;6.04;67.57
72798;BME280;61084;55.816;37.036;2023-03-16T11:23:55;99153.91;;;6.06;67.53
72798;BME280;61084;55.816;37.036;2023-03-16T11:26:34;99152.09;;;6.08;67.23
72798;BME280;61084;55.816;37.036;2023-03-16T11:29:05;99154.63;;;6.10;67.27
72798;BME280;61084;55.816;37.036;2023-03-16T11:31:39;99148.53;;;6.11;67.51
72798;BME280;61084;55.816;37.036;2023-03-16T11:34:13;99153.75;;;6.11;67.38
72798;BME280;61084;55.816;37.036;2023-03-16T11:36:51;99161.50;;;6.13;67.89
72798;BME280;61084;55.816;37.036;2023-03-16T11:39:52;99157.13;;;6.13;67.87
72798;BME280;61084;55.816;37.036;2023-03-16T11:42:32;99158.88;;;6.13;67.52
72798;BME280;61084;55.816;37.036;2023-03-16T11:56:17;99175.72;;;6.04;67.78
72798;BME280;61084;55.816;37.036;2023-03-16T12:04:34;99191.38;;;6.02;67.84
72798;BME280;61084;55.816;37.036;2023-03-16T12:07:42;99188.84;;;6.01;67.75
72798;BME280;61084;55.816;37.036;2023-03-16T12:10:17;99186.16;;;6.04;68.05
72798;BME280;61084;55.816;37.036;2023-03-16T12:21:00;99197.34;;;6.06;68.12
72798;BME280;61084;55.816;37.036;2023-03-16T12:23:42;99196.59;;;6.02;67.71
72798;BME280;61084;55.816;37.036;2023-03-16T12:26:09;99189.66;;;6.03;67.95
72798;BME280;61084;55.816;37.036;2023-03-16T12:28:37;99194.84;;;6.03;68.23
72798;BME280;61084;55.816;37.036;2023-03-16T12:34:21;99200.03;;;6.04;67.97
72798;BME280;61084;55.816;37.036;2023-03-16T12:45:11;99201.63;;;6.07;67.71
72798;BME280;61084;55.816;37.036;2023-03-16T12:50:25;99200.81;;;6.06;68.03
72798;BME280;61084;55.816;37.036;2023-03-16T12:52:52;99208.91;;;5.99;68.59
72798;BME280;61084;55.816;37.036;2023-03-16T12:55:24;99210.78;;;5.95;68.49
72798;BME280;61084;55.816;37.036;2023-03-16T12:57:59;99212.38;;;5.99;68.52
72798;BME280;61084;55.816;37.036;2023-03-16T13:00:38;99213.09;;;6.03;68.40
72798;BME280;61084;55.816;37.036;2023-03-16T13:03:12;99213.88;;;6.05;68.17
72798;BME280;61084;55.816;37.036;2023-03-16T13:05:50;99220.81;;;6.06;67.93
72798;BME280;61084;55.816;37.036;2023-03-16T13:08:19;99219.22;;;6.02;68.21
72798;BME280;61084;55.816;37.036;2023-03-16T13:11:03;99223.69;;;5.98;68.54
72798;BME280;61084;55.816;37.036;2023-03-16T13:13:30;99224.63;;;5.96;67.92
72798;BME280;61084;55.816;37.036;2023-03-16T13:16:22;99236.03;;;5.93;67.56
72798;BME280;61084;55.816;37.036;2023-03-16T13:18:50;99231.25;;;5.81;68.29
72798;BME280;61084;55.816;37.036;2023-03-16T13:21:19;99222.94;;;5.72;68.63
72798;BME280;61084;55.816;37.036;2023-03-16T13:26:38;99217.41;;;5.56;69.22
72798;BME280;61084;55.816;37.036;2023-03-16T13:31:44;99216.03;;;5.46;68.30
72798;BME280;61084;55.816;37.036;2023-03-16T13:34:13;99206.91;;;5.34;68.48
72798;BME280;61084;55.816;37.036;2023-03-16T13:36:40;99212.78;;;5.40;68.92
72798;BME280;61084;55.816;37.036;2023-03-16T13:39:17;99226.81;;;5.35;68.74
72798;BME280;61084;55.816;37.036;2023-03-16T13:42:13;99217.41;;;5.31;69.42
72798;BME280;61084;55.816;37.036;2023-03-16T13:44:41;99224.53;;;5.26;69.35
72798;BME280;61084;55.816;37.036;2023-03-16T13:47:12;99218.69;;;5.20;69.24
72798;BME280;61084;55.816;37.036;2023-03-16T13:49:43;99217.78;;;5.21;69.01
72798;BME280;61084;55.816;37.036;2023-03-16T13:54:56;99220.50;;;5.18;69.90
72798;BME280;61084;55.816;37.036;2023-03-16T13:57:26;99218.69;;;5.20;69.71
72798;BME280;61084;55.816;37.036;2023-03-16T14:00:11;99222.19;;;5.19;69.57
72798;BME280;61084;55.816;37.036;2023-03-16T14:02:43;99210.16;;;5.16;69.88
72798;BME280;61084;55.816;37.036;2023-03-16T14:05:17;99210.94;;;5.18;69.90
72798;BME280;61084;55.816;37.036;2023-03-16T14:07:48;99214.63;;;5.13;69.38
72798;BME280;61084;55.816;37.036;2023-03-16T14:10:16;99225.84;;;5.13;69.30
72798;BME280;61084;55.816;37.036;2023-03-16T14:15:18;99233.72;;;5.12;69.28
72798;BME280;61084;55.816;37.036;2023-03-16T14:17:44;99238.06;;;5.11;69.28
72798;BME280;61084;55.816;37.036;2023-03-16T14:20:21;99232.97;;;5.08;69.92
72798;BME280;61084;55.816;37.036;2023-03-16T14:22:52;99239.97;;;5.06;70.11
72798;BME280;61084;55.816;37.036;2023-03-16T14:25:21;99239.34;;;5.00;69.29
72798;BME280;61084;55.816;37.036;2023-03-16T14:28:00;99246.38;;;4.96;70.30
72798;BME280;61084;55.816;37.036;2023-03-16T14:30:28;99241.28;;;4.93;70.18
72798;BME280;61084;55.816;37.036;2023-03-16T14:33:18;99253.53;;;4.90;70.48
72798;BME280;61084;55.816;37.036;2023-03-16T14:35:53;99250.25;;;4.83;70.17
72798;BME280;61084;55.816;37.036;2023-03-16T14:38:34;99244.25;;;4.81;70.54
72798;BME280;61084;55.816;37.036;2023-03-16T14:41:24;99242.72;;;4.76;70.46
72798;BME280;61084;55.816;37.036;2023-03-16T14:43:54;99250.75;;;4.68;69.28
72798;BME280;61084;55.816;37.036;2023-03-16T14:46:33;99251.97;;;4.58;69.54